createdAt,value
2023-04-18T00:06:47.444Z,96454.09
2023-04-18T00:21:49.602Z,96449.47
2023-04-18T00:36:51.167Z,96443.13
2023-04-18T00:51:52.780Z,96430.97
2023-04-18T01:06:54.470Z,96416.50
2023-04-18T01:21:56.389Z,96409.19
2023-04-18T01:36:58.076Z,96407.84
2023-04-18T01:51:59.670Z,96394.34
2023-04-18T02:07:01.341Z,96379.84
2023-04-18T02:22:02.901Z,96370.97
2023-04-18T02:37:06.252Z,96372.44
2023-04-18T02:52:07.896Z,96364.53
2023-04-18T03:07:09.797Z,96377.34
2023-04-18T03:22:13.796Z,96372.31
2023-04-18T03:37:22.998Z,96373.69
2023-04-18T03:52:29.808Z,96366.56
2023-04-18T04:07:32.060Z,96388.97
2023-04-18T04:22:34.694Z,96383.41
2023-04-18T04:37:36.778Z,96396.28
2023-04-18T04:52:49.964Z,96403.78
2023-04-18T05:07:52.010Z,96411.22
2023-04-18T05:22:53.605Z,96409.44
2023-04-18T05:37:55.210Z,96416.03
2023-04-18T05:52:59.430Z,96418.88
2023-04-18T06:08:01.050Z,96432.88
2023-04-18T06:23:02.632Z,96453.91
2023-04-18T06:38:04.207Z,96452.84
2023-04-18T06:53:06.249Z,96457.81
2023-04-18T07:08:07.882Z,96460.16
2023-04-18T07:23:10.630Z,96460.03
2023-04-18T07:38:12.277Z,96469.00
2023-04-18T07:53:14.463Z,96474.31
2023-04-18T08:08:16.365Z,96474.91
2023-04-18T08:23:17.954Z,96489.69
2023-04-18T08:38:19.558Z,96492.25
2023-04-18T08:53:21.287Z,96496.75
2023-04-18T09:08:24.246Z,96487.09
2023-04-18T09:23:26.246Z,96493.84
2023-04-18T09:38:27.886Z,96488.78
2023-04-18T09:53:29.503Z,96489.03
2023-04-18T10:08:31.279Z,96492.16
2023-04-18T10:23:35.006Z,96488.63
2023-04-18T10:38:45.346Z,96488.13
2023-04-18T10:53:47.155Z,96483.41
2023-04-18T11:08:48.822Z,96468.13
2023-04-18T11:23:50.479Z,96471.88
2023-04-18T11:38:52.052Z,96467.13
2023-04-18T11:53:53.621Z,96466.13
2023-04-18T12:08:55.196Z,96465.19
2023-04-18T12:23:57.587Z,96468.34
2023-04-18T12:38:59.161Z,96459.28
2023-04-18T12:54:00.792Z,96467.25
2023-04-18T13:09:02.380Z,96471.84
2023-04-18T13:24:04.325Z,96465.34
2023-04-18T13:39:06.059Z,96459.25
2023-04-18T13:54:07.836Z,96468.28
2023-04-18T14:09:09.501Z,96459.22
2023-04-18T14:24:11.417Z,96467.91
2023-04-18T14:39:13.344Z,96466.47
2023-04-18T14:54:15.148Z,96464.84
2023-04-18T15:09:17.071Z,96479.00
2023-04-18T15:24:18.700Z,96471.72
2023-04-18T15:39:23.614Z,96481.16
2023-04-18T15:54:25.284Z,96479.69
2023-04-18T16:09:27.248Z,96477.75
2023-04-18T16:24:30.354Z,96493.13
2023-04-18T16:39:32.060Z,96493.34
2023-04-18T16:54:33.673Z,96501.84
2023-04-18T17:09:35.933Z,96504.16
2023-04-18T17:24:38.116Z,96512.81
2023-04-18T17:39:40.676Z,96525.94
2023-04-18T17:54:42.420Z,96532.53
2023-04-18T18:09:45.625Z,96537.34
2023-04-18T18:24:47.347Z,96551.81
2023-04-18T18:39:48.979Z,96572.50
2023-04-18T18:54:50.648Z,96592.31
2023-04-18T19:09:54.007Z,96597.47
2023-04-18T19:24:55.771Z,96599.19
2023-04-18T19:39:57.314Z,96601.38
2023-04-18T19:54:58.912Z,96620.53
2023-04-18T20:10:00.584Z,96619.34
2023-04-18T20:25:02.225Z,96626.47
2023-04-18T20:40:08.059Z,96621.47
2023-04-18T20:55:09.738Z,96623.91
2023-04-18T21:10:11.315Z,96628.75
2023-04-18T21:25:12.912Z,96623.19
2023-04-18T21:40:14.818Z,96615.00
2023-04-18T21:55:16.396Z,96621.50
2023-04-18T22:10:18.568Z,96625.13
2023-04-18T22:25:20.196Z,96609.81
2023-04-18T22:40:21.759Z,96616.41
2023-04-18T22:55:23.363Z,96625.88
2023-04-18T23:10:24.967Z,96621.41
2023-04-18T23:25:26.689Z,96622.38
2023-04-18T23:40:28.269Z,96625.38
2023-04-18T23:55:30.294Z,96613.75
